createdAt,value
2019-06-26T00:00:48.751Z,18.70
2019-06-26T00:03:17.206Z,18.70
2019-06-26T00:05:45.735Z,18.60
2019-06-26T00:08:14.214Z,18.60
2019-06-26T00:10:42.738Z,18.50
2019-06-26T00:13:25.044Z,18.50
2019-06-26T00:15:41.387Z,18.50
2019-06-26T00:18:09.996Z,18.40
2019-06-26T00:20:38.598Z,18.40
2019-06-26T00:23:07.209Z,18.40
2019-06-26T00:25:35.655Z,18.40
2019-06-26T00:28:04.196Z,18.40
2019-06-26T00:30:32.647Z,18.40
2019-06-26T00:33:01.123Z,18.40
2019-06-26T00:35:29.662Z,18.30
2019-06-26T00:37:58.119Z,18.30
2019-06-26T00:40:26.584Z,18.30
2019-06-26T00:42:55.035Z,18.30
2019-06-26T00:45:23.584Z,18.30
2019-06-26T00:47:52.076Z,18.30
2019-06-26T00:50:20.840Z,18.20
2019-06-26T00:52:49.314Z,18.10
2019-06-26T00:55:17.993Z,18.10
2019-06-26T00:57:46.592Z,18.10
2019-06-26T01:00:15.291Z,18.10
2019-06-26T01:02:43.756Z,18.10
2019-06-26T01:05:13.420Z,18.10
2019-06-26T01:07:41.966Z,18.00
2019-06-26T01:10:13.071Z,18.00
2019-06-26T01:12:41.559Z,18.10
2019-06-26T01:15:10.923Z,18.00
2019-06-26T01:17:39.569Z,18.00
2019-06-26T01:20:08.543Z,18.00
2019-06-26T01:22:37.007Z,18.00
2019-06-26T01:25:05.981Z,17.90
2019-06-26T01:27:34.569Z,17.90
2019-06-26T01:30:04.580Z,17.90
2019-06-26T01:32:33.052Z,17.80
2019-06-26T01:35:01.565Z,17.90
2019-06-26T01:37:30.048Z,17.90
2019-06-26T01:39:58.525Z,17.90
2019-06-26T01:42:26.999Z,17.90
2019-06-26T01:44:55.480Z,17.90
2019-06-26T01:47:23.998Z,17.90
2019-06-26T01:49:52.555Z,17.80
2019-06-26T01:52:21.076Z,17.90
2019-06-26T01:54:49.553Z,17.80
2019-06-26T01:57:18.071Z,17.90
2019-06-26T01:59:46.543Z,17.80
2019-06-26T02:02:15.007Z,17.70
2019-06-26T02:04:43.550Z,17.70
2019-06-26T02:07:12.147Z,17.70
2019-06-26T02:09:40.817Z,17.70
2019-06-26T02:12:09.338Z,17.70
2019-06-26T02:14:37.812Z,17.80
2019-06-26T02:17:06.279Z,17.70
2019-06-26T02:19:34.803Z,17.60
2019-06-26T02:22:03.344Z,17.70
2019-06-26T02:24:31.943Z,17.60
2019-06-26T02:27:00.551Z,17.60
2019-06-26T02:29:29.028Z,17.60
2019-06-26T02:31:57.554Z,17.50
2019-06-26T02:34:26.096Z,17.60
2019-06-26T02:36:54.634Z,17.60
2019-06-26T02:39:23.178Z,17.50
2019-06-26T02:41:51.707Z,17.50
2019-06-26T02:44:20.250Z,17.50
2019-06-26T02:46:48.698Z,17.40
2019-06-26T02:49:17.164Z,17.40
2019-06-26T02:51:45.625Z,17.40
2019-06-26T02:54:14.095Z,17.30
2019-06-26T02:56:42.642Z,17.30
2019-06-26T02:59:11.167Z,17.30
2019-06-26T03:01:39.632Z,17.30
2019-06-26T03:04:08.214Z,17.40
2019-06-26T03:06:37.169Z,17.50
2019-06-26T03:09:07.269Z,17.40
2019-06-26T03:11:35.812Z,17.40
2019-06-26T03:14:04.412Z,17.60
2019-06-26T03:16:32.948Z,17.60
2019-06-26T03:19:01.526Z,17.50
2019-06-26T03:21:30.053Z,17.50
2019-06-26T03:23:58.587Z,17.40
2019-06-26T03:26:27.039Z,17.40
2019-06-26T03:28:55.591Z,17.40
2019-06-26T03:31:24.042Z,17.30
2019-06-26T03:33:52.505Z,17.30
2019-06-26T03:36:20.975Z,17.20
2019-06-26T03:38:49.495Z,17.30
2019-06-26T03:41:17.964Z,17.30
2019-06-26T03:43:46.443Z,17.30
2019-06-26T03:46:14.980Z,17.40
2019-06-26T03:48:43.447Z,17.40
2019-06-26T03:51:14.035Z,17.50
2019-06-26T03:53:42.095Z,17.70
2019-06-26T03:56:10.583Z,17.80
2019-06-26T03:58:39.125Z,17.70
2019-06-26T04:01:07.667Z,17.70
2019-06-26T04:03:36.188Z,17.70
2019-06-26T04:06:04.785Z,17.80
2019-06-26T04:08:33.247Z,17.90
2019-06-26T04:11:01.707Z,18.00
2019-06-26T04:13:30.251Z,18.10
2019-06-26T04:15:58.722Z,18.20
2019-06-26T04:18:27.250Z,18.30
2019-06-26T04:20:55.802Z,18.40
2019-06-26T04:23:24.335Z,18.50
2019-06-26T04:25:52.800Z,18.70
2019-06-26T04:28:21.699Z,18.70
2019-06-26T04:30:50.168Z,18.90
2019-06-26T04:33:18.704Z,19.00
2019-06-26T04:35:47.171Z,19.10
2019-06-26T04:38:15.641Z,19.10
2019-06-26T04:40:44.247Z,19.20
2019-06-26T04:43:12.720Z,19.30
2019-06-26T04:45:56.950Z,19.30
2019-06-26T04:48:11.443Z,19.40
2019-06-26T04:50:40.610Z,19.50
2019-06-26T04:53:09.147Z,19.60
2019-06-26T04:55:37.626Z,19.60
2019-06-26T04:58:06.222Z,19.70
2019-06-26T05:00:34.707Z,19.70
2019-06-26T05:03:03.227Z,19.90
2019-06-26T05:05:39.591Z,20.00
2019-06-26T05:08:01.892Z,20.00
2019-06-26T05:10:30.418Z,20.10
2019-06-26T05:12:58.977Z,20.20
2019-06-26T05:15:27.506Z,20.30
2019-06-26T05:17:56.064Z,20.50
2019-06-26T05:20:24.571Z,20.60
2019-06-26T05:22:53.040Z,20.70
2019-06-26T05:25:21.491Z,20.90
2019-06-26T05:27:49.963Z,21.00
2019-06-26T05:30:19.056Z,21.10
2019-06-26T05:32:47.556Z,21.20
2019-06-26T05:35:18.162Z,21.30
2019-06-26T05:37:46.624Z,21.50
2019-06-26T05:40:15.378Z,21.60
2019-06-26T05:42:43.896Z,21.70
2019-06-26T05:45:13.309Z,21.70
2019-06-26T05:47:41.827Z,21.70
2019-06-26T05:50:11.291Z,21.90
2019-06-26T05:52:42.560Z,22.00
2019-06-26T05:55:10.585Z,22.10
2019-06-26T05:57:41.768Z,22.20
2019-06-26T06:00:10.562Z,22.20
2019-06-26T06:02:39.303Z,22.30
2019-06-26T06:05:27.107Z,22.30
2019-06-26T06:07:55.629Z,22.40
2019-06-26T06:10:24.227Z,22.50
2019-06-26T06:12:52.841Z,22.60
2019-06-26T06:15:21.519Z,22.70
2019-06-26T06:17:49.987Z,22.90
2019-06-26T06:20:24.008Z,23.00
2019-06-26T06:22:52.476Z,23.10
2019-06-26T06:25:21.015Z,23.20
2019-06-26T06:27:49.499Z,23.30
2019-06-26T06:30:18.230Z,23.40
2019-06-26T06:32:46.926Z,23.50
2019-06-26T06:35:15.455Z,23.50
2019-06-26T06:37:44.006Z,23.60
2019-06-26T06:40:12.979Z,23.80
2019-06-26T06:42:41.511Z,23.90
2019-06-26T06:45:10.199Z,24.00
2019-06-26T06:47:38.671Z,23.90
2019-06-26T06:50:07.197Z,24.00
2019-06-26T06:52:35.770Z,24.10
2019-06-26T06:55:05.975Z,24.20
2019-06-26T06:57:34.467Z,24.30
2019-06-26T07:00:03.486Z,24.40
2019-06-26T07:02:31.932Z,24.30
2019-06-26T07:05:00.551Z,24.50
2019-06-26T07:07:29.015Z,24.60
2019-06-26T07:09:57.473Z,24.70
2019-06-26T07:12:26.080Z,24.90
2019-06-26T07:14:54.535Z,24.90
2019-06-26T07:17:23.007Z,25.00
2019-06-26T07:19:51.531Z,25.10
2019-06-26T07:22:19.984Z,25.10
2019-06-26T07:24:48.529Z,25.20
2019-06-26T07:27:17.075Z,25.40
2019-06-26T07:29:45.543Z,25.40
2019-06-26T07:32:14.009Z,25.30
2019-06-26T07:34:42.536Z,25.40
2019-06-26T07:37:11.005Z,25.50
2019-06-26T07:39:39.543Z,25.50
2019-06-26T07:42:08.072Z,25.60
2019-06-26T07:44:36.707Z,25.60
2019-06-26T07:47:12.660Z,25.80
2019-06-26T07:49:35.428Z,25.90
2019-06-26T07:52:04.059Z,25.90
2019-06-26T07:54:32.579Z,26.00
2019-06-26T07:57:01.053Z,26.00
2019-06-26T07:59:29.508Z,26.10
2019-06-26T08:01:57.978Z,26.20
2019-06-26T08:04:26.427Z,26.30
2019-06-26T08:06:54.968Z,26.30
2019-06-26T08:09:23.446Z,26.50
2019-06-26T08:11:51.956Z,26.50
2019-06-26T08:14:20.487Z,26.70
2019-06-26T08:16:48.952Z,26.70
2019-06-26T08:19:17.485Z,26.80
2019-06-26T08:21:46.890Z,26.80
2019-06-26T08:24:15.560Z,26.90
2019-06-26T08:26:44.099Z,26.90
2019-06-26T08:29:12.623Z,26.90
2019-06-26T08:31:41.090Z,27.10
2019-06-26T08:34:09.575Z,27.10
2019-06-26T08:36:38.095Z,27.20
2019-06-26T08:39:07.306Z,27.20
2019-06-26T08:41:35.775Z,27.20
2019-06-26T08:44:04.302Z,27.30
2019-06-26T08:46:32.755Z,27.40
2019-06-26T08:49:01.277Z,27.50
2019-06-26T08:51:29.851Z,27.60
2019-06-26T08:53:58.316Z,27.50
2019-06-26T08:56:26.759Z,27.50
2019-06-26T08:58:55.219Z,27.70
2019-06-26T09:01:23.687Z,27.80
2019-06-26T09:03:52.139Z,27.90
2019-06-26T09:06:20.616Z,28.10
2019-06-26T09:08:49.148Z,28.20
2019-06-26T09:11:17.694Z,28.10
2019-06-26T09:13:46.221Z,28.20
2019-06-26T09:16:14.769Z,28.30
2019-06-26T09:18:43.303Z,28.20
2019-06-26T09:21:11.831Z,28.20
2019-06-26T09:23:40.315Z,28.30
2019-06-26T09:26:08.775Z,28.40
2019-06-26T09:28:37.358Z,28.50
2019-06-26T09:31:05.816Z,28.60
2019-06-26T09:33:34.292Z,28.50
2019-06-26T09:36:06.648Z,28.70
2019-06-26T09:38:52.397Z,28.80
2019-06-26T09:41:20.935Z,28.80
2019-06-26T09:43:49.387Z,28.80
2019-06-26T09:46:17.921Z,28.70
2019-06-26T09:48:52.547Z,28.80
2019-06-26T09:51:16.549Z,28.90
2019-06-26T09:53:47.446Z,28.90
2019-06-26T09:56:15.191Z,29.00
2019-06-26T09:58:43.707Z,29.20
2019-06-26T10:01:12.167Z,29.30
2019-06-26T10:03:40.619Z,29.40
2019-06-26T10:06:09.091Z,29.50
2019-06-26T10:08:37.607Z,29.50
2019-06-26T10:11:07.490Z,29.30
2019-06-26T10:13:36.088Z,29.40
2019-06-26T10:16:04.760Z,29.40
2019-06-26T10:18:33.269Z,29.40
2019-06-26T10:21:01.863Z,29.40
2019-06-26T10:23:30.408Z,29.50
2019-06-26T10:25:58.868Z,29.70
2019-06-26T10:28:27.328Z,29.80
2019-06-26T10:30:55.870Z,29.70
2019-06-26T10:33:24.643Z,29.80
2019-06-26T10:35:53.263Z,29.80
2019-06-26T10:38:21.796Z,29.90
2019-06-26T10:40:50.319Z,30.00
2019-06-26T10:43:18.775Z,30.00
2019-06-26T10:45:47.239Z,30.10
2019-06-26T10:48:15.699Z,30.10
2019-06-26T10:50:51.056Z,30.10
2019-06-26T10:53:14.337Z,30.10
2019-06-26T10:55:43.671Z,30.10
2019-06-26T10:58:12.130Z,30.20
2019-06-26T11:00:40.733Z,30.20
2019-06-26T11:03:09.254Z,30.30
2019-06-26T11:05:37.716Z,30.20
2019-06-26T11:08:06.320Z,30.30
2019-06-26T11:10:34.936Z,30.40
2019-06-26T11:13:03.462Z,30.60
2019-06-26T11:15:32.071Z,30.50
2019-06-26T11:18:00.573Z,30.50
2019-06-26T11:20:29.073Z,30.60
2019-06-26T11:22:57.556Z,30.80
2019-06-26T11:25:26.056Z,30.90
2019-06-26T11:27:54.584Z,30.80
2019-06-26T11:30:23.627Z,30.70
2019-06-26T11:32:52.148Z,30.70
2019-06-26T11:35:20.670Z,30.70
2019-06-26T11:37:49.222Z,30.70
2019-06-26T11:40:18.292Z,30.70
2019-06-26T11:42:46.760Z,30.70
2019-06-26T11:45:15.523Z,30.80
2019-06-26T11:47:45.897Z,30.90
2019-06-26T11:50:14.899Z,30.90
2019-06-26T11:52:43.359Z,31.00
2019-06-26T11:55:12.559Z,30.90
2019-06-26T11:57:41.080Z,30.90
2019-06-26T12:00:12.287Z,30.90
2019-06-26T12:02:40.753Z,31.00
2019-06-26T12:05:10.143Z,31.30
2019-06-26T12:07:38.734Z,31.30
2019-06-26T12:10:08.737Z,31.40
2019-06-26T12:12:37.350Z,31.50
2019-06-26T12:15:07.309Z,31.40
2019-06-26T12:17:35.782Z,31.30
2019-06-26T12:20:17.846Z,31.40
2019-06-26T12:22:35.924Z,31.60
2019-06-26T12:25:05.818Z,31.50
2019-06-26T12:27:34.348Z,31.40
2019-06-26T12:30:04.238Z,31.50
2019-06-26T12:32:41.802Z,31.50
2019-06-26T12:35:03.985Z,31.40
2019-06-26T12:37:37.470Z,31.50
2019-06-26T12:40:03.426Z,31.40
2019-06-26T12:42:31.943Z,31.60
2019-06-26T12:45:00.473Z,31.60
2019-06-26T12:47:28.931Z,31.70
2019-06-26T12:49:57.384Z,31.80
2019-06-26T12:52:25.849Z,31.70
2019-06-26T12:54:54.296Z,31.40
2019-06-26T12:57:22.758Z,31.60
2019-06-26T12:59:57.299Z,31.80
2019-06-26T13:02:21.531Z,31.70
2019-06-26T13:04:49.988Z,31.70
2019-06-26T13:07:18.541Z,31.80
2019-06-26T13:09:47.132Z,31.80
2019-06-26T13:12:15.648Z,32.00
2019-06-26T13:14:44.111Z,32.00
2019-06-26T13:17:12.643Z,31.90
2019-06-26T13:19:41.143Z,31.70
2019-06-26T13:22:09.671Z,31.70
2019-06-26T13:24:38.185Z,31.80
2019-06-26T13:27:06.705Z,31.80
2019-06-26T13:29:35.171Z,31.80
2019-06-26T13:32:03.729Z,31.80
2019-06-26T13:34:32.243Z,31.80
2019-06-26T13:37:00.809Z,31.90
2019-06-26T13:39:29.304Z,31.90
2019-06-26T13:41:57.767Z,32.00
2019-06-26T13:44:26.221Z,32.10
2019-06-26T13:46:54.688Z,32.20
2019-06-26T13:49:23.211Z,32.20
2019-06-26T13:51:51.760Z,32.00
2019-06-26T13:54:20.272Z,31.90
2019-06-26T13:56:48.739Z,32.00
2019-06-26T13:59:17.217Z,31.80
2019-06-26T14:01:45.754Z,31.80
2019-06-26T14:04:14.204Z,31.70
2019-06-26T14:06:42.801Z,31.80
2019-06-26T14:09:11.272Z,31.80
2019-06-26T14:11:39.715Z,31.90
2019-06-26T14:14:08.189Z,31.90
2019-06-26T14:16:36.737Z,32.00
2019-06-26T14:19:05.311Z,32.00
2019-06-26T14:21:33.787Z,32.10
2019-06-26T14:24:02.342Z,32.00
2019-06-26T14:26:30.864Z,32.00
2019-06-26T14:28:59.341Z,31.90
2019-06-26T14:31:27.850Z,32.00
2019-06-26T14:33:56.316Z,32.10
2019-06-26T14:36:24.759Z,32.10
2019-06-26T14:38:53.223Z,32.10
2019-06-26T14:41:21.686Z,32.00
2019-06-26T14:43:50.144Z,32.20
2019-06-26T14:46:30.751Z,32.20
2019-06-26T14:48:59.297Z,32.30
2019-06-26T14:51:41.186Z,32.50
2019-06-26T14:53:57.931Z,32.40
2019-06-26T14:56:26.396Z,32.40
2019-06-26T14:58:54.915Z,32.30
2019-06-26T15:01:23.391Z,32.40
2019-06-26T15:03:51.923Z,32.10
2019-06-26T15:06:20.455Z,32.10
2019-06-26T15:08:48.914Z,32.00
2019-06-26T15:11:17.364Z,32.00
2019-06-26T15:13:45.823Z,32.20
2019-06-26T15:16:14.344Z,32.10
2019-06-26T15:18:42.914Z,32.10
2019-06-26T15:21:11.372Z,32.00
2019-06-26T15:23:39.888Z,31.80
2019-06-26T15:26:08.359Z,31.70
2019-06-26T15:28:36.871Z,31.80
2019-06-26T15:31:05.410Z,31.90
2019-06-26T15:33:36.601Z,31.80
2019-06-26T15:36:04.121Z,31.90
2019-06-26T15:38:32.637Z,31.80
2019-06-26T15:41:01.116Z,31.80
2019-06-26T15:43:29.640Z,31.80
2019-06-26T15:45:58.095Z,31.60
2019-06-26T15:48:26.632Z,31.70
2019-06-26T15:50:55.085Z,32.00
2019-06-26T15:53:23.628Z,32.30
2019-06-26T15:55:52.194Z,32.50
2019-06-26T15:58:20.636Z,32.80
2019-06-26T16:00:49.101Z,33.30
2019-06-26T16:03:17.549Z,33.50
2019-06-26T16:05:46.038Z,33.70
2019-06-26T16:08:14.555Z,33.90
2019-06-26T16:10:43.368Z,34.40
2019-06-26T16:13:11.896Z,34.80
2019-06-26T16:15:40.430Z,35.20
2019-06-26T16:18:10.658Z,35.10
2019-06-26T16:20:39.197Z,35.10
2019-06-26T16:23:07.710Z,35.20
2019-06-26T16:25:36.180Z,35.40
2019-06-26T16:28:06.075Z,35.90
2019-06-26T16:30:34.838Z,36.30
2019-06-26T16:33:03.409Z,36.60
2019-06-26T16:35:31.858Z,36.40
2019-06-26T16:38:00.319Z,36.10
2019-06-26T16:40:28.775Z,36.30
2019-06-26T16:42:57.234Z,36.40
2019-06-26T16:45:25.774Z,36.10
2019-06-26T16:47:54.359Z,36.50
2019-06-26T16:50:22.815Z,36.40
2019-06-26T16:52:51.262Z,36.10
2019-06-26T16:55:19.747Z,36.30
2019-06-26T16:57:48.195Z,36.20
2019-06-26T17:00:18.637Z,36.10
2019-06-26T17:02:47.087Z,35.60
2019-06-26T17:05:16.195Z,35.70
2019-06-26T17:07:44.661Z,35.90
2019-06-26T17:10:13.573Z,35.50
2019-06-26T17:12:42.168Z,35.20
2019-06-26T17:15:11.651Z,34.70
2019-06-26T17:17:40.116Z,34.10
2019-06-26T17:20:09.246Z,33.50
2019-06-26T17:22:37.798Z,33.10
2019-06-26T17:25:07.284Z,32.60
2019-06-26T17:27:35.959Z,32.60
2019-06-26T17:30:06.451Z,32.40
2019-06-26T17:32:34.933Z,32.00
2019-06-26T17:35:05.116Z,32.00
2019-06-26T17:37:33.706Z,32.20
2019-06-26T17:40:02.228Z,32.10
2019-06-26T17:42:30.699Z,31.90
2019-06-26T17:44:59.159Z,31.60
2019-06-26T17:47:27.699Z,31.40
2019-06-26T17:49:56.215Z,31.10
2019-06-26T17:52:24.663Z,30.80
2019-06-26T17:54:53.122Z,30.60
2019-06-26T17:57:21.630Z,30.40
2019-06-26T17:59:50.135Z,30.20
2019-06-26T18:02:18.652Z,30.00
2019-06-26T18:04:47.098Z,29.80
2019-06-26T18:07:15.567Z,29.50
2019-06-26T18:09:44.032Z,29.30
2019-06-26T18:12:12.567Z,29.00
2019-06-26T18:14:43.246Z,28.70
2019-06-26T18:17:21.685Z,28.50
2019-06-26T18:19:41.396Z,28.20
2019-06-26T18:22:09.863Z,28.00
2019-06-26T18:24:57.668Z,27.90
2019-06-26T18:27:26.131Z,27.90
2019-06-26T18:29:54.599Z,27.70
2019-06-26T18:32:23.076Z,27.60
2019-06-26T18:34:51.541Z,27.50
2019-06-26T18:37:19.992Z,27.30
2019-06-26T18:39:48.522Z,27.20
2019-06-26T18:42:17.003Z,27.10
2019-06-26T18:44:45.527Z,27.00
2019-06-26T18:47:14.012Z,26.80
2019-06-26T18:49:42.539Z,26.50
2019-06-26T18:52:11.009Z,26.30
2019-06-26T18:54:39.480Z,26.20
2019-06-26T18:57:08.040Z,26.00
2019-06-26T18:59:36.508Z,25.90
2019-06-26T19:02:05.057Z,25.70
2019-06-26T19:04:33.563Z,25.60
2019-06-26T19:07:02.035Z,25.60
2019-06-26T19:09:30.635Z,25.50
2019-06-26T19:11:59.228Z,25.50
2019-06-26T19:14:27.699Z,25.40
2019-06-26T19:16:56.172Z,25.20
2019-06-26T19:19:24.698Z,25.10
2019-06-26T19:21:53.167Z,25.00
2019-06-26T19:24:21.703Z,25.00
2019-06-26T19:26:50.167Z,25.00
2019-06-26T19:29:18.635Z,24.90
2019-06-26T19:31:47.111Z,24.80
2019-06-26T19:34:15.864Z,24.80
2019-06-26T19:36:49.950Z,24.70
2019-06-26T19:39:14.520Z,24.70
2019-06-26T19:41:43.017Z,24.70
2019-06-26T19:44:11.544Z,24.70
2019-06-26T19:46:41.983Z,24.70
2019-06-26T19:49:10.266Z,24.70
2019-06-26T19:51:38.721Z,24.60
2019-06-26T19:54:22.775Z,24.50
2019-06-26T19:56:39.339Z,24.40
2019-06-26T19:59:08.257Z,24.30
2019-06-26T20:01:37.166Z,24.20
2019-06-26T20:04:06.214Z,24.00
2019-06-26T20:06:35.087Z,24.00
2019-06-26T20:09:04.616Z,24.00
2019-06-26T20:11:33.577Z,23.90
2019-06-26T20:14:02.164Z,23.90
2019-06-26T20:16:31.337Z,23.90
2019-06-26T20:19:00.247Z,23.80
2019-06-26T20:21:28.902Z,23.80
2019-06-26T20:23:57.893Z,23.80
2019-06-26T20:26:26.781Z,23.60
2019-06-26T20:28:55.452Z,23.50
2019-06-26T20:31:25.309Z,23.40
2019-06-26T20:33:54.321Z,23.40
2019-06-26T20:36:23.112Z,23.30
2019-06-26T20:38:52.078Z,23.30
2019-06-26T20:41:20.620Z,23.20
2019-06-26T20:43:49.159Z,23.20
2019-06-26T20:46:17.611Z,23.20
2019-06-26T20:48:46.078Z,23.20
2019-06-26T20:51:14.532Z,23.10
2019-06-26T20:53:43.084Z,23.10
2019-06-26T20:56:11.531Z,23.00
2019-06-26T20:58:40.068Z,23.00
2019-06-26T21:01:08.543Z,22.90
2019-06-26T21:03:36.996Z,22.90
2019-06-26T21:06:05.530Z,22.80
2019-06-26T21:08:34.025Z,22.70
2019-06-26T21:11:02.545Z,22.60
2019-06-26T21:13:30.998Z,22.60
2019-06-26T21:15:59.466Z,22.70
2019-06-26T21:18:27.922Z,22.70
2019-06-26T21:20:56.419Z,22.60
2019-06-26T21:23:24.877Z,22.50
2019-06-26T21:25:53.413Z,22.50
2019-06-26T21:28:21.894Z,22.30
2019-06-26T21:30:50.404Z,22.30
2019-06-26T21:33:18.897Z,22.20
2019-06-26T21:35:47.416Z,22.20
2019-06-26T21:38:15.964Z,22.30
2019-06-26T21:40:44.492Z,22.30
2019-06-26T21:43:13.034Z,22.30
2019-06-26T21:45:41.495Z,22.30
2019-06-26T21:48:09.971Z,22.20
2019-06-26T21:50:38.515Z,22.10
2019-06-26T21:53:07.052Z,22.00
2019-06-26T21:55:35.501Z,21.90
2019-06-26T21:58:04.004Z,21.80
2019-06-26T22:00:34.223Z,21.80
2019-06-26T22:03:02.839Z,21.80
2019-06-26T22:05:31.447Z,21.80
2019-06-26T22:07:59.899Z,21.80
2019-06-26T22:10:28.507Z,21.70
2019-06-26T22:12:57.032Z,21.70
2019-06-26T22:15:25.559Z,21.70
2019-06-26T22:17:54.095Z,21.80
2019-06-26T22:20:22.688Z,21.80
2019-06-26T22:22:51.159Z,21.80
2019-06-26T22:25:19.759Z,21.70
2019-06-26T22:27:48.436Z,21.80
2019-06-26T22:30:17.527Z,21.90
2019-06-26T22:32:46.067Z,21.80
2019-06-26T22:35:15.167Z,21.80
2019-06-26T22:37:43.622Z,21.80
2019-06-26T22:40:12.228Z,21.80
2019-06-26T22:42:40.830Z,21.80
2019-06-26T22:45:09.555Z,21.80
2019-06-26T22:47:38.011Z,21.80
2019-06-26T22:50:08.109Z,21.70
2019-06-26T22:52:36.753Z,21.60
2019-06-26T22:55:06.814Z,21.50
2019-06-26T22:57:35.500Z,21.30
2019-06-26T23:00:06.781Z,21.30
2019-06-26T23:02:54.668Z,21.20
2019-06-26T23:05:23.213Z,21.10
2019-06-26T23:07:51.737Z,21.10
2019-06-26T23:10:20.745Z,21.10
2019-06-26T23:12:49.205Z,21.00
2019-06-26T23:15:17.916Z,21.00
2019-06-26T23:17:46.516Z,21.00
2019-06-26T23:20:15.062Z,21.00
2019-06-26T23:22:43.524Z,21.00
2019-06-26T23:25:12.740Z,21.00
2019-06-26T23:27:41.345Z,21.00
2019-06-26T23:30:15.783Z,21.20
2019-06-26T23:32:44.244Z,21.30
2019-06-26T23:35:12.955Z,21.20
2019-06-26T23:37:41.552Z,21.10
2019-06-26T23:40:10.152Z,21.00
2019-06-26T23:42:39.029Z,21.00
2019-06-26T23:45:11.082Z,21.00
2019-06-26T23:47:39.656Z,21.00
2019-06-26T23:50:08.185Z,21.00
2019-06-26T23:52:36.731Z,20.90
2019-06-26T23:55:07.396Z,20.70
2019-06-26T23:57:35.873Z,20.60
